LFBD Airport Information

Runway Information
Runway 05 Length 10171 ft width 148 ft
Elevation 160 ft Threshold 0 ft Heading 46
Runway 23 Length 10171 ft Width 148 ft
Elevation 151 ft Threshold 0 ft Heading 226
Runway 11 Length 7923 ft width 148 ft
Elevation 153 ft Threshold 0 ft Heading 107
Runway 29 Length 7923 ft Width 148 ft
Elevation 160 ft Threshold 0 ft Heading 287
Airport Frequencies
Type APP Name AQUITAINE Frequency 118.6 MHZ
Type ARR Name APP Frequency 121.2 MHZ
Type ATIS Name ATIS Frequency 131.15 MHZ
Type GND Name GND Frequency 121.9 MHZ
Type INFO Name AQUITAINE Frequency 120.575 MHZ
Type OPS Name OPNS Frequency 143.175 MHZ
Type TWR Name TWR Frequency 118.3 MHZ
Airport Navaids
Type NDB Name Bordeaux Frequency 393 KHZ
Type TACAN Name Bordeaux Frequency 114400 KHZ
Type NDB Name Bordeaux Frequency 318 KHZ
Type VOR-DME Name Bordeaux Frequency 113750 KHZ
Type NDB Name Bordeaux Frequency 361 KHZ
Airport Weather Information & NOTAM
ADDS - METARS form results

(1808 UTC 20 August 2019)
Data provider http://aviationweather.gov/metar/data/
 
METAR text: LFBD 201800Z AUTO 33009KT CAVOK 23/10 Q1024 NOSIG
Conditions at: LFBD (BORDEAUX/MERIGNA, FR) observed 1800 UTC 20 August 2019
Temperature: 23.0°C (73°F)
Dewpoint: 10.0°C (50°F) [RH = 44%]
Pressure (altimeter): 30.24 inches Hg (1024.0 mb)
Winds: from the NNW (330 degrees) at 10 MPH (9 knots; 4.6 m/s)
Visibility: 6 or more miles (10+ km)
Ceiling: ceiling and visibility are OK
Clouds: unknown
Weather: no significant weather observed at this time

METAR text: LFBD 201730Z AUTO 35009KT 320V030 CAVOK 24/10 Q1024 NOSIG
Conditions at: LFBD (BORDEAUX/MERIGNA, FR) observed 1730 UTC 20 August 2019
Temperature: 24.0°C (75°F)
Dewpoint: 10.0°C (50°F) [RH = 41%]
Pressure (altimeter): 30.24 inches Hg (1024.0 mb)
Winds: from the N (350 degrees) at 10 MPH (9 knots; 4.6 m/s)
Visibility: 6 or more miles (10+ km)
Ceiling: ceiling and visibility are OK
Clouds: unknown
Weather: no significant weather observed at this time

Forecast for: LFBD (BORDEAUX/MERIGNA, FR)
Text: TAF LFBD 201700Z 2018/2124 35005KT CAVOK TX28/2115Z TN14/2106Z
Forecast period: 1800 UTC 20 August 2019 to 0800 UTC 21 August 2019
Forecast type: FROM: standard forecast or significant change
Winds: from the N (350 degrees) at 6 MPH (5 knots; 2.6 m/s)
Visibility: 6 or more miles 10+ km)
Ceiling: unknown
Clouds: missing
Weather: no significant weather forecast for this period
Text: BECMG 2108/2110 07008KT
Forecast period: 0800 UTC 21 August 2019 to 0000 UTC 22 August 2019
Forecast type: BECOMING: Conditions expected to become as follows by 1000 UTC 21 August 2019
Winds: from the ENE (70 degrees) at 9 MPH (8 knots; 4.1 m/s)
Visibility: 6 or more miles 10+ km)
Ceiling: unknown
Clouds: missing
Weather: no significant weather forecast for this period